createdAt,value
2022-08-09T00:01:54.555Z,7.80
2022-08-09T00:04:34.197Z,7.50
2022-08-09T00:07:03.736Z,4.40
2022-08-09T00:09:38.711Z,5.10
2022-08-09T00:12:07.304Z,2.00
2022-08-09T00:14:38.343Z,2.00
2022-08-09T00:17:08.574Z,3.00
2022-08-09T00:19:56.422Z,3.10
2022-08-09T00:22:25.663Z,1.00
2022-08-09T00:25:04.016Z,3.60
2022-08-09T00:27:36.591Z,1.00
2022-08-09T00:30:25.594Z,4.20
2022-08-09T00:32:56.125Z,3.80
2022-08-09T00:35:25.785Z,5.50
2022-08-09T00:37:57.400Z,1.90
2022-08-09T00:40:30.915Z,1.20
2022-08-09T00:44:10.888Z,1.30
2022-08-09T00:45:53.905Z,8.30
2022-08-09T00:48:23.444Z,1.00
2022-08-09T00:50:53.542Z,7.20
2022-08-09T00:53:24.263Z,2.90
2022-08-09T00:58:34.377Z,10.20
2022-08-09T01:01:03.652Z,6.90
2022-08-09T01:03:46.195Z,6.20
2022-08-09T01:06:18.959Z,12.00
2022-08-09T01:08:51.736Z,13.80
2022-08-09T01:11:25.614Z,15.30
2022-08-09T01:14:00.227Z,21.40
2022-08-09T01:16:32.864Z,12.20
2022-08-09T01:19:17.218Z,11.50
2022-08-09T01:22:06.296Z,21.40
2022-08-09T01:24:52.106Z,16.10
2022-08-09T01:27:23.776Z,12.80
2022-08-09T01:29:56.106Z,11.40
2022-08-09T01:32:38.590Z,16.30
2022-08-09T01:35:28.269Z,16.40
2022-08-09T01:38:10.095Z,17.40
2022-08-09T01:40:40.562Z,11.20
2022-08-09T01:43:11.045Z,11.60
2022-08-09T01:45:44.552Z,13.90
2022-08-09T01:48:15.667Z,13.30
2022-08-09T01:50:48.261Z,11.50
2022-08-09T01:53:19.819Z,17.20
2022-08-09T01:55:48.666Z,19.90
2022-08-09T01:58:18.314Z,19.00
2022-08-09T02:00:52.635Z,17.40
2022-08-09T02:03:22.534Z,12.40
2022-08-09T02:06:03.227Z,14.30
2022-08-09T02:08:56.982Z,12.50
2022-08-09T02:11:23.675Z,14.10
2022-08-09T02:14:07.340Z,12.00
2022-08-09T02:16:53.297Z,14.10
2022-08-09T02:19:24.715Z,14.20
2022-08-09T02:22:10.187Z,13.60
2022-08-09T02:24:39.110Z,15.20
2022-08-09T02:27:10.904Z,10.70
2022-08-09T02:29:43.264Z,14.40
2022-08-09T02:32:12.348Z,16.00
2022-08-09T02:34:51.805Z,17.50
2022-08-09T02:37:31.778Z,17.60
2022-08-09T02:40:09.406Z,11.60
2022-08-09T02:42:40.296Z,14.10
2022-08-09T02:45:12.459Z,17.20
2022-08-09T02:47:57.431Z,13.00
2022-08-09T02:50:28.175Z,15.60
2022-08-09T02:52:57.591Z,20.60
2022-08-09T02:55:46.928Z,16.10
2022-08-09T02:58:32.830Z,15.70
2022-08-09T03:01:06.418Z,17.90
2022-08-09T03:04:17.231Z,19.40
2022-08-09T03:06:27.689Z,24.70
2022-08-09T03:08:56.449Z,20.00
2022-08-09T03:12:05.281Z,20.70
2022-08-09T03:14:13.119Z,18.30
2022-08-09T03:16:44.981Z,18.00
2022-08-09T03:19:14.558Z,20.20
2022-08-09T03:22:03.325Z,18.00
2022-08-09T03:24:42.443Z,20.40
2022-08-09T03:27:21.217Z,19.20
2022-08-09T03:29:57.752Z,17.90
2022-08-09T03:32:32.205Z,17.90
2022-08-09T03:35:00.542Z,16.60
2022-08-09T03:37:56.414Z,27.10
2022-08-09T03:40:18.153Z,19.80
2022-08-09T03:42:46.636Z,28.10
2022-08-09T03:45:15.486Z,29.20
2022-08-09T03:47:46.829Z,33.50
2022-08-09T03:50:18.886Z,40.60
2022-08-09T03:52:57.626Z,35.50
2022-08-09T03:55:25.628Z,41.60
2022-08-09T03:58:06.323Z,36.00
2022-08-09T04:00:38.213Z,34.20
2022-08-09T04:03:07.918Z,30.00
2022-08-09T04:05:40.473Z,31.00
2022-08-09T04:08:08.830Z,30.80
2022-08-09T04:10:36.710Z,29.90
2022-08-09T04:13:09.535Z,27.60
2022-08-09T04:16:18.007Z,26.50
2022-08-09T04:18:28.926Z,31.50
2022-08-09T04:20:56.779Z,32.20
2022-08-09T04:23:25.938Z,35.50
2022-08-09T04:25:56.384Z,33.50
2022-08-09T04:28:30.720Z,34.20
2022-08-09T04:31:05.686Z,33.30
2022-08-09T04:33:51.485Z,38.80
2022-08-09T04:36:21.951Z,36.90
2022-08-09T04:38:51.297Z,33.10
2022-08-09T04:41:23.542Z,35.30
2022-08-09T04:44:04.908Z,34.90
2022-08-09T04:46:56.761Z,37.40
2022-08-09T04:49:40.868Z,36.80
2022-08-09T04:52:11.001Z,31.50
2022-08-09T04:54:39.208Z,31.40
2022-08-09T04:57:09.297Z,30.10
2022-08-09T04:59:37.977Z,31.70
2022-08-09T05:02:06.410Z,24.70
2022-08-09T05:04:35.689Z,26.90
2022-08-09T05:07:03.693Z,22.90
2022-08-09T05:09:45.413Z,20.80
2022-08-09T05:12:17.867Z,18.30
2022-08-09T05:14:48.903Z,17.80
2022-08-09T05:18:38.365Z,14.90
2022-08-09T05:20:09.327Z,16.60
2022-08-09T05:23:57.114Z,14.60
2022-08-09T05:25:26.420Z,12.20
2022-08-09T05:28:00.298Z,11.80
2022-08-09T05:30:31.260Z,4.50
2022-08-09T05:33:00.652Z,10.50
2022-08-09T05:35:31.976Z,3.50
2022-08-09T05:38:06.888Z,2.90
2022-08-09T05:40:35.983Z,1.70
2022-08-09T05:43:04.642Z,1.00
2022-08-09T05:45:52.651Z,1.00
2022-08-09T05:48:20.347Z,1.00
2022-08-09T05:51:16.592Z,1.00
2022-08-09T05:53:56.632Z,1.00
2022-08-09T05:56:26.819Z,1.00
2022-08-09T05:58:58.686Z,1.00
2022-08-09T06:01:34.152Z,1.00
2022-08-09T06:04:12.249Z,1.00
2022-08-09T06:06:49.782Z,1.00
2022-08-09T06:09:41.139Z,1.00
2022-08-09T06:12:06.947Z,1.00
2022-08-09T06:14:35.970Z,1.00
2022-08-09T06:17:05.197Z,1.00
2022-08-09T06:19:37.060Z,1.00
2022-08-09T06:22:15.448Z,1.00
2022-08-09T06:24:43.501Z,1.00
2022-08-09T06:27:11.324Z,1.00
2022-08-09T06:29:48.425Z,1.00
2022-08-09T06:33:13.822Z,1.00
2022-08-09T06:35:19.602Z,1.00
2022-08-09T06:38:05.490Z,1.00
2022-08-09T06:40:34.116Z,1.00
2022-08-09T06:43:02.189Z,1.00
2022-08-09T06:46:07.069Z,1.00
2022-08-09T06:48:30.474Z,1.00
2022-08-09T06:50:59.682Z,1.00
2022-08-09T06:53:38.089Z,1.00
2022-08-09T06:56:06.609Z,1.00
2022-08-09T07:00:47.221Z,1.00
2022-08-09T07:01:24.188Z,1.00
2022-08-09T07:04:00.360Z,1.00
2022-08-09T07:06:31.984Z,1.00
2022-08-09T07:09:01.190Z,1.00
2022-08-09T07:11:34.365Z,1.00
2022-08-09T07:14:18.104Z,1.00
2022-08-09T07:16:58.094Z,1.00
2022-08-09T07:19:26.538Z,1.00
2022-08-09T07:21:57.767Z,1.00
2022-08-09T07:24:40.252Z,1.00
2022-08-09T07:27:26.717Z,1.00
2022-08-09T07:30:00.501Z,1.00
2022-08-09T07:32:32.215Z,1.00
2022-08-09T07:35:02.719Z,1.00
2022-08-09T07:37:43.850Z,1.00
2022-08-09T07:40:16.957Z,1.00
2022-08-09T07:42:49.098Z,1.00
2022-08-09T07:45:23.755Z,1.00
2022-08-09T07:48:06.611Z,1.00
2022-08-09T07:50:36.862Z,1.00
2022-08-09T07:53:05.459Z,1.00
2022-08-09T07:55:41.034Z,1.00
2022-08-09T07:58:26.104Z,1.00
2022-08-09T08:00:58.941Z,1.00
2022-08-09T08:03:37.037Z,1.00
2022-08-09T08:06:05.159Z,1.00
2022-08-09T08:09:01.457Z,1.00
2022-08-09T08:12:12.144Z,1.00
2022-08-09T08:14:10.171Z,1.00
2022-08-09T08:16:39.646Z,1.00
2022-08-09T08:19:18.838Z,1.00
2022-08-09T08:21:52.569Z,1.00
2022-08-09T08:24:20.716Z,1.00
2022-08-09T08:26:55.582Z,1.00
2022-08-09T08:29:27.366Z,1.00
2022-08-09T08:32:03.817Z,1.00
2022-08-09T08:34:34.351Z,1.00
2022-08-09T08:37:02.883Z,1.00
2022-08-09T08:39:39.582Z,1.00
2022-08-09T08:42:13.781Z,1.00
2022-08-09T08:44:44.180Z,1.00
2022-08-09T08:47:15.786Z,1.00
2022-08-09T08:49:47.874Z,1.00
2022-08-09T08:52:52.873Z,1.00
2022-08-09T08:55:09.340Z,1.00
2022-08-09T08:57:38.678Z,1.00
2022-08-09T09:00:20.460Z,1.00
2022-08-09T09:03:02.799Z,1.00
2022-08-09T09:05:58.578Z,1.00
2022-08-09T09:08:30.666Z,1.00
2022-08-09T09:13:42.198Z,1.00
2022-08-09T09:16:18.454Z,1.00
2022-08-09T09:19:21.514Z,1.00
2022-08-09T09:22:04.311Z,1.00
2022-08-09T09:24:37.717Z,1.00
2022-08-09T09:27:06.523Z,1.00
2022-08-09T09:30:09.307Z,1.00
2022-08-09T09:32:34.317Z,1.00
2022-08-09T09:35:07.491Z,1.00
2022-08-09T09:37:40.170Z,1.00
2022-08-09T09:40:09.701Z,1.00
2022-08-09T09:42:39.485Z,1.00
2022-08-09T09:45:14.204Z,1.00
2022-08-09T09:47:48.073Z,1.00
2022-08-09T09:50:39.518Z,1.00
2022-08-09T09:53:17.828Z,1.00
2022-08-09T09:56:04.200Z,1.00
2022-08-09T09:58:45.132Z,1.00
2022-08-09T10:01:36.706Z,1.00
2022-08-09T10:04:09.549Z,1.00
2022-08-09T10:06:42.883Z,1.00
2022-08-09T10:09:22.614Z,1.00
2022-08-09T10:12:07.834Z,1.00
2022-08-09T10:14:47.688Z,1.00
2022-08-09T10:17:40.340Z,1.00
2022-08-09T10:20:15.109Z,1.00
2022-08-09T10:22:43.527Z,1.00
2022-08-09T10:25:14.732Z,1.00
2022-08-09T10:27:45.287Z,1.00
2022-08-09T10:34:05.202Z,1.00
2022-08-09T10:36:03.171Z,1.00
2022-08-09T10:38:54.389Z,1.00
2022-08-09T10:41:20.690Z,1.00
2022-08-09T10:43:59.051Z,1.00
2022-08-09T10:46:55.216Z,1.00
2022-08-09T10:49:50.093Z,1.00
2022-08-09T10:52:22.241Z,1.00
2022-08-09T10:54:54.521Z,1.00
2022-08-09T10:57:23.263Z,1.00
2022-08-09T10:59:58.165Z,1.00
2022-08-09T11:03:13.150Z,1.00
2022-08-09T11:05:30.999Z,1.00
2022-08-09T11:08:30.312Z,1.00
2022-08-09T11:11:08.745Z,1.00
2022-08-09T11:13:50.826Z,1.00
2022-08-09T11:16:39.041Z,1.00
2022-08-09T11:19:09.616Z,1.00
2022-08-09T11:22:04.906Z,1.00
2022-08-09T11:24:48.584Z,1.00
2022-08-09T11:28:03.040Z,1.00
2022-08-09T11:30:34.382Z,1.00
2022-08-09T11:33:04.627Z,1.00
2022-08-09T11:35:48.977Z,1.00
2022-08-09T11:38:22.186Z,1.00
2022-08-09T11:40:56.633Z,1.00
2022-08-09T11:43:40.625Z,1.00
2022-08-09T11:46:09.405Z,1.00
2022-08-09T11:48:47.690Z,1.00
2022-08-09T11:52:48.587Z,1.00
2022-08-09T11:54:28.667Z,1.00
2022-08-09T11:57:28.394Z,1.00
2022-08-09T12:00:15.773Z,1.00
2022-08-09T12:02:48.918Z,1.00
2022-08-09T12:05:22.878Z,1.00
2022-08-09T12:07:53.418Z,1.00
2022-08-09T12:10:38.503Z,1.00
2022-08-09T12:14:09.786Z,1.00
2022-08-09T12:15:59.747Z,1.00
2022-08-09T12:18:30.366Z,1.00
2022-08-09T12:21:02.813Z,1.00
2022-08-09T12:23:56.271Z,1.00
2022-08-09T12:26:25.481Z,1.00
2022-08-09T12:29:11.662Z,1.00
2022-08-09T12:32:01.881Z,1.00
2022-08-09T12:34:34.933Z,1.00
2022-08-09T12:37:21.627Z,1.00
2022-08-09T12:40:00.138Z,1.00
2022-08-09T12:42:30.855Z,1.00
2022-08-09T12:44:59.412Z,1.00
2022-08-09T12:47:28.548Z,1.00
2022-08-09T12:50:24.960Z,1.00
2022-08-09T12:53:08.803Z,1.00
2022-08-09T12:56:12.654Z,1.00
2022-08-09T12:58:30.522Z,1.00
2022-08-09T13:01:01.366Z,1.00
2022-08-09T13:03:53.565Z,1.00
2022-08-09T13:06:25.889Z,1.00
2022-08-09T13:09:07.210Z,1.00
2022-08-09T13:11:39.144Z,1.00
2022-08-09T13:14:42.088Z,1.00
2022-08-09T13:17:01.912Z,1.00
2022-08-09T13:20:09.707Z,1.00
2022-08-09T13:22:36.783Z,1.00
2022-08-09T13:25:07.830Z,1.00
2022-08-09T13:27:48.176Z,1.00
2022-08-09T13:30:51.162Z,1.00
2022-08-09T13:33:22.424Z,1.00
2022-08-09T13:36:39.604Z,1.00
2022-08-09T13:38:57.608Z,1.00
2022-08-09T13:41:58.882Z,1.00
2022-08-09T13:44:17.134Z,1.00
2022-08-09T13:47:28.901Z,1.00
2022-08-09T13:49:39.424Z,1.00
2022-08-09T13:52:23.760Z,1.00
2022-08-09T13:55:00.223Z,1.00
2022-08-09T13:57:36.353Z,1.00
2022-08-09T14:00:10.331Z,1.00
2022-08-09T14:03:04.047Z,1.00
2022-08-09T14:05:59.218Z,1.00
2022-08-09T14:08:18.193Z,1.00
2022-08-09T14:10:50.624Z,1.00
2022-08-09T14:13:27.763Z,1.00
2022-08-09T14:16:10.910Z,1.00
2022-08-09T14:18:45.276Z,1.00
2022-08-09T14:21:18.321Z,1.00
2022-08-09T14:23:55.480Z,1.00
2022-08-09T14:26:30.664Z,1.00
2022-08-09T14:29:02.679Z,1.00
2022-08-09T14:31:49.645Z,1.00
2022-08-09T14:34:27.406Z,1.00
2022-08-09T14:37:00.625Z,1.00
2022-08-09T14:39:40.565Z,1.00
2022-08-09T14:42:30.468Z,1.00
2022-08-09T14:45:01.496Z,1.00
2022-08-09T14:47:57.030Z,1.00
2022-08-09T14:50:28.611Z,1.00
2022-08-09T14:52:56.503Z,1.00
2022-08-09T14:55:25.691Z,1.00
2022-08-09T14:57:59.870Z,1.00
2022-08-09T15:00:27.825Z,1.00
2022-08-09T15:02:58.204Z,1.00
2022-08-09T15:05:26.259Z,1.00
2022-08-09T15:07:58.171Z,1.00
2022-08-09T15:10:26.632Z,1.00
2022-08-09T15:12:54.516Z,1.00
2022-08-09T15:15:22.668Z,1.00
2022-08-09T15:17:52.824Z,1.00
2022-08-09T15:21:55.043Z,1.00
2022-08-09T15:24:03.094Z,1.00
2022-08-09T15:25:59.196Z,1.00
2022-08-09T15:28:28.362Z,1.00
2022-08-09T15:31:08.225Z,1.00
2022-08-09T15:34:15.254Z,1.00
2022-08-09T15:36:29.400Z,1.00
2022-08-09T15:39:00.031Z,1.00
2022-08-09T15:41:31.460Z,1.00
2022-08-09T15:44:00.422Z,1.00
2022-08-09T15:46:33.012Z,1.00
2022-08-09T15:49:20.463Z,1.00
2022-08-09T15:52:03.245Z,1.00
2022-08-09T15:54:48.925Z,1.00
2022-08-09T15:57:19.019Z,1.00
2022-08-09T16:00:03.088Z,1.00
2022-08-09T16:02:30.920Z,1.00
2022-08-09T16:04:58.748Z,1.00
2022-08-09T16:07:30.428Z,1.00
2022-08-09T16:10:11.042Z,1.00
2022-08-09T16:12:41.514Z,1.00
2022-08-09T16:16:04.363Z,1.00
2022-08-09T16:18:06.189Z,1.00
2022-08-09T16:20:36.355Z,1.00
2022-08-09T16:23:05.862Z,1.00
2022-08-09T16:25:40.409Z,1.00
2022-08-09T16:28:12.267Z,1.00
2022-08-09T16:30:44.656Z,1.00
2022-08-09T16:33:23.262Z,1.00
2022-08-09T16:35:55.906Z,1.00
2022-08-09T16:38:26.004Z,1.00
2022-08-09T16:40:55.516Z,1.00
2022-08-09T16:43:24.284Z,1.00
2022-08-09T16:45:54.600Z,1.00
2022-08-09T16:48:41.192Z,1.00
2022-08-09T16:51:14.273Z,1.00
2022-08-09T16:54:02.431Z,1.00
2022-08-09T16:56:31.934Z,1.00
2022-08-09T16:59:01.119Z,1.00
2022-08-09T17:01:35.447Z,1.00
2022-08-09T17:04:05.458Z,1.00
2022-08-09T17:08:40.652Z,1.00
2022-08-09T17:09:45.671Z,1.00
2022-08-09T17:12:11.724Z,1.00
2022-08-09T17:14:39.575Z,1.00
2022-08-09T17:17:26.667Z,1.00
2022-08-09T17:20:29.075Z,1.00
2022-08-09T17:22:49.741Z,1.00
2022-08-09T17:25:20.435Z,1.00
2022-08-09T17:27:53.802Z,1.00
2022-08-09T17:30:22.460Z,1.00
2022-08-09T17:32:54.559Z,1.00
2022-08-09T17:35:25.468Z,1.00
2022-08-09T17:38:11.603Z,1.00
2022-08-09T17:40:42.013Z,1.00
2022-08-09T17:43:33.516Z,1.00
2022-08-09T17:46:07.110Z,1.00
2022-08-09T17:48:38.654Z,1.00
2022-08-09T17:51:17.624Z,1.00
2022-08-09T17:53:52.228Z,1.00
2022-08-09T17:56:22.212Z,1.00
2022-08-09T17:58:57.870Z,1.00
2022-08-09T18:01:25.819Z,1.00
2022-08-09T18:04:13.610Z,1.00
2022-08-09T18:06:43.130Z,1.00
2022-08-09T18:09:22.693Z,1.00
2022-08-09T18:12:14.850Z,1.00
2022-08-09T18:14:53.836Z,1.00
2022-08-09T18:17:27.342Z,1.00
2022-08-09T18:21:01.170Z,1.00
2022-08-09T18:23:04.646Z,1.00
2022-08-09T18:25:50.377Z,1.00
2022-08-09T18:30:36.153Z,1.00
2022-08-09T18:31:09.754Z,1.00
2022-08-09T18:33:37.587Z,1.00
2022-08-09T18:36:08.712Z,1.00
2022-08-09T18:38:42.358Z,1.00
2022-08-09T18:41:10.388Z,1.00
2022-08-09T18:43:45.332Z,1.00
2022-08-09T18:46:45.934Z,1.00
2022-08-09T18:49:10.566Z,1.00
2022-08-09T18:51:55.646Z,1.00
2022-08-09T18:54:28.437Z,1.00
2022-08-09T18:56:57.260Z,1.00
2022-08-09T18:59:37.402Z,1.00
2022-08-09T19:02:18.145Z,1.00
2022-08-09T19:04:47.452Z,1.00
2022-08-09T19:07:28.651Z,1.00
2022-08-09T19:10:14.436Z,1.00
2022-08-09T19:12:51.013Z,1.00
2022-08-09T19:15:27.553Z,1.00
2022-08-09T19:17:58.642Z,1.00
2022-08-09T19:20:33.963Z,1.00
2022-08-09T19:23:02.540Z,1.00
2022-08-09T19:26:01.068Z,1.00
2022-08-09T19:28:21.202Z,1.00
2022-08-09T19:30:49.121Z,1.00
2022-08-09T19:33:20.380Z,1.00
2022-08-09T19:35:58.489Z,1.00
2022-08-09T19:38:27.400Z,1.00
2022-08-09T19:40:57.558Z,1.00
2022-08-09T19:44:00.697Z,1.00
2022-08-09T19:46:15.819Z,1.00
2022-08-09T19:48:45.603Z,1.00
2022-08-09T19:51:30.886Z,1.00
2022-08-09T19:53:59.153Z,1.00
2022-08-09T19:56:28.714Z,1.00
2022-08-09T19:59:39.511Z,1.00
2022-08-09T20:02:04.420Z,1.00
2022-08-09T20:04:40.861Z,1.00
2022-08-09T20:07:20.895Z,1.00
2022-08-09T20:09:50.667Z,1.00
2022-08-09T20:12:27.485Z,1.00
2022-08-09T20:14:59.692Z,8.40
2022-08-09T20:17:27.622Z,1.00
2022-08-09T20:20:11.393Z,1.00
2022-08-09T20:22:46.190Z,1.00
2022-08-09T20:25:14.620Z,1.00
2022-08-09T20:27:51.105Z,1.00
2022-08-09T20:30:21.797Z,1.00
2022-08-09T20:32:51.931Z,1.00
2022-08-09T20:35:21.923Z,1.00
2022-08-09T20:38:22.171Z,1.00
2022-08-09T20:40:37.919Z,1.00
2022-08-09T20:43:18.135Z,1.00
2022-08-09T20:45:59.418Z,1.00
2022-08-09T20:48:39.907Z,1.00
2022-08-09T20:51:19.113Z,1.00
2022-08-09T20:53:48.710Z,1.00
2022-08-09T20:56:20.713Z,1.00
2022-08-09T20:58:50.324Z,1.00
2022-08-09T21:01:34.321Z,1.00
2022-08-09T21:05:52.442Z,1.00
2022-08-09T21:06:56.213Z,1.00
2022-08-09T21:09:32.794Z,1.00
2022-08-09T21:14:42.267Z,1.00
2022-08-09T21:18:25.553Z,1.00
2022-08-09T21:20:18.680Z,1.00
2022-08-09T21:22:52.693Z,1.00
2022-08-09T21:25:39.667Z,1.00
2022-08-09T21:28:15.927Z,1.00
2022-08-09T21:30:44.403Z,1.00
2022-08-09T21:33:12.923Z,1.00
2022-08-09T21:35:50.839Z,1.00
2022-08-09T21:38:31.526Z,1.00
2022-08-09T21:40:59.561Z,1.00
2022-08-09T21:43:56.115Z,1.00
2022-08-09T21:46:16.308Z,1.00
2022-08-09T21:48:49.610Z,1.00
2022-08-09T21:51:24.082Z,1.00
2022-08-09T21:54:05.231Z,1.00
2022-08-09T21:56:43.092Z,1.00
2022-08-09T21:59:16.177Z,1.00
2022-08-09T22:02:00.358Z,1.00
2022-08-09T22:04:56.538Z,1.00
2022-08-09T22:07:23.252Z,1.00
2022-08-09T22:10:05.171Z,1.00
2022-08-09T22:12:33.381Z,1.00
2022-08-09T22:15:01.788Z,1.00
2022-08-09T22:17:31.819Z,1.00
2022-08-09T22:20:01.018Z,1.00
2022-08-09T22:22:30.361Z,1.00
2022-08-09T22:26:06.104Z,1.00
2022-08-09T22:27:51.069Z,1.00
2022-08-09T22:30:26.098Z,1.00
2022-08-09T22:32:59.372Z,1.00
2022-08-09T22:36:00.082Z,1.00
2022-08-09T22:38:15.007Z,1.00
2022-08-09T22:40:48.724Z,1.00
2022-08-09T22:44:00.695Z,1.00
2022-08-09T22:48:14.262Z,1.00
2022-08-09T22:48:53.920Z,1.00
2022-08-09T22:51:23.871Z,1.00
2022-08-09T22:54:02.729Z,1.00
2022-08-09T22:56:34.042Z,1.00
2022-08-09T22:59:05.675Z,1.00
2022-08-09T23:01:51.940Z,1.00
2022-08-09T23:04:19.921Z,1.00
2022-08-09T23:07:11.100Z,1.00
2022-08-09T23:09:39.381Z,1.00
2022-08-09T23:12:07.448Z,1.00
2022-08-09T23:14:41.684Z,1.00
2022-08-09T23:17:10.474Z,1.00
2022-08-09T23:20:06.301Z,1.00
2022-08-09T23:22:26.423Z,1.00
2022-08-09T23:24:54.448Z,1.00
2022-08-09T23:27:22.344Z,1.00
2022-08-09T23:29:51.535Z,1.00
2022-08-09T23:32:19.359Z,1.00
2022-08-09T23:34:47.191Z,1.00
2022-08-09T23:37:15.722Z,1.00
2022-08-09T23:39:49.468Z,1.00
2022-08-09T23:42:17.386Z,1.00
2022-08-09T23:44:45.248Z,1.00
2022-08-09T23:47:14.440Z,3.90
2022-08-09T23:49:42.294Z,3.00
2022-08-09T23:52:10.127Z,6.60
2022-08-09T23:54:39.258Z,5.10
2022-08-09T23:57:11.263Z,5.70
2022-08-09T23:59:58.217Z,13.30
